Latest Weather Observations for Maryborough

IDQ60801

Issued at 2:32 pm EST Thursday 30 March 2017 (issued every 30 minutes, with the page automatically refreshed every 10 minutes)

About weather observations | Map of weather stations | Latest weather observations for QLD | Other Formats
Station Details ID: 040126 Name: MARYBOROUGH Lat: -25.51 Lon: 152.72 Height: 8.98 m
Data from the previous 72 hours. | See also: Recent months at Maryborough
Date/Time
EST
Temp
°C
App
Temp
°C
Dew
Point
°C
Rel
Hum
%
Delta-T
°C
Wind Press
QNH
hPa
Press
MSL
hPa
Rain since
9am
mm
Dir  Spd
km/h
Gust
km/h
Spd
kts
Gust
kts
30/02:30pm 25.2 28.2 24.7 97 0.3 NW 17 33 9 18 1001.3 - 45.4
30/02:13pm 25.4 26.6 24.5 95 0.6 N 26 72 14 39 1001.8 - 30.0
30/02:06pm 25.3 26.0 24.3 94 0.7 N 28 72 15 39 1002.1 - 27.2
30/02:02pm 25.2 25.7 24.0 93 0.8 N 28 48 15 26 1002.4 - 25.2
30/02:00pm 25.6 26.9 24.6 94 0.7 N 26 48 14 26 1002.3 - 24.8
30/01:39pm 26.0 27.6 25.1 95 0.6 NE 26 43 14 23 1001.5 - 19.2
30/01:30pm 26.0 28.3 25.1 95 0.6 NE 22 44 12 24 1001.8 - 18.4
30/01:29pm 26.0 28.0 25.1 95 0.6 NE 24 52 13 28 1001.9 - 18.4
30/01:22pm 26.0 28.0 25.1 95 0.6 NNE 24 52 13 28 1002.5 - 17.6
30/01:11pm 25.9 28.5 24.9 94 0.7 NNE 20 35 11 19 1002.7 - 16.8
30/01:06pm 25.9 28.5 24.9 94 0.7 NNE 20 37 11 20 1003.3 - 16.4
30/01:00pm 26.0 28.7 25.1 95 0.6 NE 20 37 11 20 1003.1 - 15.8
30/12:58pm 26.0 28.7 25.0 94 0.7 NE 20 37 11 20 1003.2 - 15.6
30/12:49pm 26.1 28.4 25.1 94 0.7 NNE 22 35 12 19 1003.6 - 14.6
30/12:48pm 26.1 28.4 25.1 94 0.7 NNE 22 37 12 20 1003.6 - 14.6
30/12:35pm 26.0 28.7 25.0 94 0.7 NE 20 37 11 20 1004.0 - 13.8
30/12:33pm 26.0 28.7 25.0 94 0.7 NNE 20 37 11 20 1003.9 - 13.8
30/12:30pm 26.0 28.7 25.0 94 0.7 NNE 20 32 11 17 1004.0 - 13.6
30/12:27pm 26.0 28.3 25.0 94 0.7 NNE 22 35 12 19 1004.1 - 13.6
30/12:23pm 26.0 28.3 25.0 94 0.7 NE 22 39 12 21 1004.2 - 13.4
30/12:00pm 25.9 28.6 25.0 95 0.6 NNE 20 35 11 19 1004.9 1004.8 11.4
30/11:30am 26.2 27.5 24.1 88 1.4 NNE 24 43 13 23 1005.8 - 4.6
30/11:24am 26.5 28.6 24.7 90 1.3 NNE 22 43 12 23 1005.8 - 3.4
30/11:19am 26.7 29.4 25.1 91 1.1 NNE 20 33 11 18 1005.8 - 1.4
30/11:08am 26.6 29.1 24.8 90 1.3 NE 20 39 11 21 1006.2 - 1.2
30/11:00am 27.0 30.0 24.6 87 1.7 NNE 17 39 9 21 1006.5 - 1.0
30/10:30am 26.8 29.1 24.5 87 1.6 NNE 20 37 11 20 1007.0 - 0.4
30/10:18am 26.8 29.5 24.8 89 1.4 NE 19 37 10 20 1007.0 - 0.4
30/10:00am 26.6 30.0 25.2 92 1.0 NE 17 24 9 13 1007.1 - 0.4
30/09:35am 26.4 30.1 25.2 93 0.8 NE 15 30 8 16 1007.7 - 0.2
30/09:30am 26.4 30.1 25.2 93 0.8 NE 15 28 8 15 1007.6 - 0.2
30/09:00am 26.2 29.9 25.2 94 0.7 NE 15 28 8 15 1007.9 1007.8 49.6
30/08:30am 26.2 29.9 25.2 94 0.7 NE 15 28 8 15 1008.6 - 49.2
30/08:00am 26.1 30.0 25.4 96 0.5 NE 15 24 8 13 1008.8 - 48.4
30/07:55am 26.1 30.3 25.4 96 0.5 NNE 13 24 7 13 1008.8 - 48.0
30/07:30am 26.1 29.8 25.2 95 0.6 NNE 15 30 8 16 1008.8 - 47.2
30/07:20am 26.2 29.2 25.2 94 0.7 NNE 19 35 10 19 1008.9 - 46.6
30/07:00am 26.2 30.3 25.2 94 0.7 NNE 13 28 7 15 1009.0 - 45.8
30/06:52am 26.2 29.9 25.2 94 0.7 NNE 15 24 8 13 1008.9 - 45.6
30/06:30am 26.0 29.7 25.1 95 0.6 NNE 15 26 8 14 1008.9 - 45.4
30/06:28am 26.0 29.3 25.1 95 0.6 NNE 17 26 9 14 1008.9 - 45.4
30/06:25am 26.0 29.3 25.1 95 0.6 NNE 17 26 9 14 1008.9 - 45.4
30/06:14am 25.8 29.7 24.9 95 0.6 NNE 13 22 7 12 1008.6 - 45.4
30/06:13am 25.8 29.7 24.9 95 0.6 NNE 13 22 7 12 1008.6 - 45.4
30/06:00am 25.7 29.2 24.8 95 0.6 NNE 15 28 8 15 1008.5 1008.4 45.4
30/05:30am 25.5 29.1 25.0 97 0.3 NNE 15 20 8 11 1008.5 - 45.0
30/05:27am 25.5 29.1 25.0 97 0.3 NNE 15 20 8 11 1008.5 - 45.0
30/05:04am 25.0 27.7 24.1 95 0.6 NNE 17 28 9 15 1008.7 - 45.0
30/05:00am 25.0 27.3 24.1 95 0.6 NNE 19 33 10 18 1008.7 - 45.0
30/04:59am 24.9 27.1 24.0 95 0.6 NNE 19 33 10 18 1008.7 - 45.0
30/04:42am 25.7 28.8 24.8 95 0.6 NNE 17 35 9 19 1008.9 - 42.8
30/04:39am 25.7 28.9 25.0 96 0.5 NNE 17 28 9 15 1008.6 - 41.2
30/04:30am 25.8 29.5 25.1 96 0.5 NNE 15 26 8 14 1008.4 - 41.0
30/04:29am 25.7 29.7 25.0 96 0.5 NNE 13 26 7 14 1008.4 - 41.0
30/04:24am 25.7 29.7 25.0 96 0.5 NNE 13 28 7 15 1008.3 - 40.8
30/04:12am 25.8 28.4 24.9 95 0.6 NNE 20 35 11 19 1008.6 - 39.8
30/04:07am 25.9 29.1 25.0 95 0.6 NNE 17 35 9 19 1008.5 - 39.2
30/04:00am 25.8 29.8 25.1 96 0.5 NNE 13 26 7 14 1008.3 - 39.0
30/03:49am 25.7 29.8 25.2 97 0.3 NNE 13 20 7 11 1008.3 - 38.4
30/03:48am 25.7 29.8 25.2 97 0.3 NNE 13 20 7 11 1008.3 - 38.4
30/03:34am 25.6 29.0 24.7 95 0.6 NNE 15 26 8 14 1008.1 - 38.2
30/03:33am 25.6 29.0 24.7 95 0.6 NNE 15 26 8 14 1008.1 - 38.2
30/03:30am 25.6 29.0 24.7 95 0.6 NNE 15 26 8 14 1008.2 - 38.0
30/03:09am 26.1 29.8 24.5 91 1.1 NE 13 22 7 12 1008.2 - 33.4
30/03:08am 26.2 29.9 24.6 91 1.1 NE 13 22 7 12 1008.3 - 33.2
30/03:00am 26.2 29.8 24.4 90 1.2 NE 13 24 7 13 1008.3 1008.2 32.0
30/02:44am 26.0 29.6 24.4 91 1.1 NE 13 24 7 13 1008.6 - 32.0
30/02:30am 25.9 29.6 24.5 92 1.0 NE 13 20 7 11 1008.9 - 32.0
30/02:15am 25.9 29.6 24.5 92 1.0 NE 13 22 7 12 1009.0 - 32.0
30/02:00am 25.9 29.2 24.5 92 1.0 NE 15 28 8 15 1009.2 - 31.8
30/01:30am 25.9 29.7 24.1 90 1.2 ENE 11 17 6 9 1009.5 - 31.6
30/01:19am 26.1 30.0 24.3 90 1.2 NE 11 17 6 9 1009.6 - 31.6
30/01:00am 26.0 30.0 24.4 91 1.1 NNE 11 19 6 10 1009.8 - 31.6
30/12:30am 26.0 29.5 24.2 90 1.2 NE 13 19 7 10 1010.5 - 31.6
30/12:24am 26.0 29.5 24.2 90 1.2 NE 13 22 7 12 1010.6 - 31.6
30/12:00am 26.1 29.7 24.3 90 1.2 NE 13 26 7 14 1010.9 1010.8 31.6
 
Date/Time
EST
Temp
°C
App
Temp
°C
Dew
Point
°C
Rel
Hum
%
Delta-T
°C
Wind Press
QNH
hPa
Press
MSL
hPa
Rain since
9am
mm
Dir  Spd
km/h
Gust
km/h
Spd
kts
Gust
kts
29/11:30pm 25.9 29.5 24.3 91 1.1 NNE 13 20 7 11 1011.2 - 31.6
29/11:00pm 25.7 29.8 24.5 93 0.8 NE 11 22 6 12 1011.1 - 31.6
29/10:30pm 25.5 29.9 24.5 94 0.7 NE 9 15 5 8 1011.5 - 31.6
29/10:00pm 25.6 30.1 24.6 94 0.7 NE 9 15 5 8 1011.7 - 31.6
29/09:30pm 25.6 30.5 24.7 95 0.6 NE 7 15 4 8 1011.8 - 31.6
29/09:00pm 25.6 30.4 25.1 97 0.3 NE 9 17 5 9 1012.2 1012.1 31.6
29/08:30pm 25.3 30.6 25.0 98 0.2 ENE 6 9 3 5 1011.9 - 31.6
29/08:00pm 25.3 30.5 24.8 97 0.3 ENE 6 9 3 5 1011.9 - 31.6
29/07:30pm 25.2 29.4 24.7 97 0.3 ESE 11 15 6 8 1011.5 - 31.0
29/07:00pm 25.1 28.8 24.6 97 0.3 ESE 13 19 7 10 1011.3 - 31.0
29/06:30pm 25.0 29.1 24.5 97 0.3 ESE 11 17 6 9 1011.3 - 31.0
29/06:00pm 25.2 29.4 24.7 97 0.3 SE 11 13 6 7 1011.2 1011.1 31.0
29/05:30pm 25.4 30.0 24.7 96 0.5 ESE 9 13 5 7 1011.0 - 31.0
29/05:22pm 25.3 29.4 24.6 96 0.5 E 11 15 6 8 1011.0 - 31.0
29/05:19pm 25.3 29.4 24.6 96 0.5 E 11 15 6 8 1011.0 - 31.0
29/05:00pm 25.7 29.6 24.8 95 0.6 ESE 13 20 7 11 1010.9 - 30.4
29/04:57pm 25.7 29.9 24.8 95 0.6 ESE 11 17 6 9 1010.9 - 29.8
29/04:50pm 25.9 30.6 25.0 95 0.6 ESE 9 15 5 8 1010.9 - 28.6
29/04:30pm 26.0 30.4 25.1 95 0.6 ESE 11 15 6 8 1010.7 - 28.4
29/04:13pm 25.9 30.1 24.7 93 0.8 ESE 11 17 6 9 1010.8 - 28.4
29/04:03pm 25.9 30.5 24.7 93 0.8 ESE 9 15 5 8 1010.7 - 28.4
29/04:00pm 25.9 30.3 24.5 92 1.0 ESE 9 13 5 7 1010.7 - 28.4
29/03:30pm 26.3 30.5 24.7 91 1.1 SE 11 15 6 8 1010.6 - 28.0
29/03:00pm 25.9 31.0 24.9 94 0.7 ESE 7 11 4 6 1010.9 1010.8 28.0
29/02:30pm 25.3 29.8 24.6 96 0.5 SSE 9 15 5 8 1011.1 - 28.0
29/02:11pm 24.8 29.6 24.5 98 0.2 SE 7 11 4 6 1011.2 - 28.0
29/02:00pm 24.8 29.7 24.6 99 0.1 E 7 13 4 7 1011.4 - 28.0
29/01:33pm 23.9 27.9 23.7 99 0.1 NE 9 13 5 7 1011.8 - 26.4
29/01:30pm 23.9 28.2 23.7 99 0.1 ENE 7 13 4 7 1011.9 - 25.8
29/01:20pm 23.7 28.1 23.4 98 0.2 NE 6 9 3 5 1011.9 - 25.4
29/01:12pm 23.6 27.2 23.1 97 0.3 NNE 9 17 5 9 1011.7 - 24.8
29/01:00pm 23.6 27.1 22.9 96 0.5 E 9 15 5 8 1011.9 - 23.4
29/12:43pm 23.7 27.4 22.5 93 0.8 NW 7 15 4 8 1012.3 - 14.4
29/12:30pm 23.7 26.0 22.1 91 1.1 WSW 13 22 7 12 1012.4 - 5.6
29/12:20pm 24.1 24.7 21.4 85 1.8 W 20 28 11 15 1012.6 - 2.6
29/12:00pm 27.1 32.0 24.6 86 1.7 ESE 7 9 4 5 1012.5 1012.4 1.0
29/11:55am 27.3 32.4 24.9 87 1.7 ESE 7 9 4 5 1012.7 - 1.0
29/11:30am 27.0 32.1 25.0 89 1.4 E 7 11 4 6 1013.1 - 1.0
29/11:05am 26.6 31.7 25.0 91 1.1 SE 7 11 4 6 1013.2 - 1.0
29/11:00am 26.3 31.2 24.7 91 1.1 ESE 7 11 4 6 1013.3 - 1.0
29/10:30am 25.9 31.0 24.7 93 0.8 SE 6 11 3 6 1013.5 - 1.0
29/10:01am 25.6 30.5 24.6 94 0.7 ESE 7 11 4 6 1013.9 - 1.0
29/10:00am 25.5 30.3 24.5 94 0.7 ESE 7 11 4 6 1013.9 - 1.0
29/09:30am 25.4 31.2 24.5 95 0.6 ENE 2 7 1 4 1013.9 - 0.6
29/09:14am 25.1 31.1 24.2 95 0.6 CALM 0 0 0 0 1013.7 - 0.2
29/09:00am 25.1 30.4 24.4 96 0.5 ENE 4 7 2 4 1013.5 1013.4 7.8
29/08:30am 24.8 29.3 23.9 95 0.6 N 7 11 4 6 1013.4 - 7.0
29/08:23am 24.8 29.5 23.9 95 0.6 N 6 9 3 5 1013.4 - 7.0
29/08:17am 24.8 29.3 23.9 95 0.6 N 7 13 4 7 1013.4 - 7.0
29/08:02am 25.2 30.5 24.9 98 0.2 NNE 6 13 3 7 1013.4 - 6.6
29/08:00am 25.2 30.5 24.9 98 0.2 NE 6 11 3 6 1013.4 - 6.6
29/07:43am 25.3 31.1 25.1 99 0.1 ENE 4 7 2 4 1013.2 - 6.2
29/07:30am 25.1 30.7 24.9 99 0.1 ESE 4 7 2 4 1013.0 - 6.2
29/07:00am 24.8 29.7 24.6 99 0.1 SE 7 11 4 6 1012.6 - 6.2
29/06:53am 24.7 29.1 24.5 99 0.1 SE 9 11 5 6 1012.5 - 6.2
29/06:30am 24.5 28.8 24.3 99 0.1 SSE 9 11 5 6 1012.2 - 6.2
29/06:15am 24.3 28.5 24.1 99 0.1 SE 9 13 5 7 1012.0 - 6.2
29/06:00am 24.3 28.1 24.1 99 0.1 SE 11 15 6 8 1011.7 1011.6 6.2
29/05:30am 24.4 27.9 24.2 99 0.1 SE 13 17 7 9 1011.8 - 5.6
29/05:00am 24.4 28.3 24.2 99 0.1 SE 11 15 6 8 1011.5 - 4.2
29/04:55am 24.4 27.9 24.2 99 0.1 SE 13 17 7 9 1011.4 - 4.0
29/04:53am 24.4 27.9 24.2 99 0.1 SE 13 17 7 9 1011.4 - 4.0
29/04:30am 24.4 28.7 24.2 99 0.1 SSE 9 13 5 7 1011.3 - 3.6
29/04:19am 24.4 28.2 24.1 98 0.2 SSE 11 13 6 7 1011.3 - 3.6
29/04:00am 24.5 28.4 24.2 98 0.2 SSE 11 15 6 8 1011.3 - 3.6
29/03:30am 24.5 29.2 24.3 99 0.1 SSE 7 9 4 5 1011.3 - 3.6
29/03:14am 24.5 29.2 24.3 99 0.1 SSE 7 11 4 6 1011.3 - 3.6
29/03:00am 24.5 28.4 24.2 98 0.2 SSE 11 13 6 7 1011.2 1011.1 3.6
29/02:30am 24.4 28.2 24.1 98 0.2 SE 11 15 6 8 1011.1 - 3.6
29/02:00am 24.5 28.8 24.2 98 0.2 SSE 9 13 5 7 1011.3 - 3.6
29/01:30am 24.5 29.1 24.2 98 0.2 SSE 7 9 4 5 1011.5 - 3.6
29/01:00am 24.4 28.7 24.2 99 0.1 SSE 9 11 5 6 1012.0 - 3.6
29/12:30am 24.1 28.6 23.6 97 0.3 S 6 6 3 3 1012.4 - 3.6
29/12:00am 24.0 28.1 23.3 96 0.5 SSE 7 7 4 4 1012.3 1012.2 3.6
 
Date/Time
EST
Temp
°C
App
Temp
°C
Dew
Point
°C
Rel
Hum
%
Delta-T
°C
Wind Press
QNH
hPa
Press
MSL
hPa
Rain since
9am
mm
Dir  Spd
km/h
Gust
km/h
Spd
kts
Gust
kts
28/11:30pm 24.2 27.9 23.3 95 0.6 ESE 9 11 5 6 1012.4 - 3.6
28/11:00pm 24.3 28.1 23.4 95 0.6 E 9 13 5 7 1012.8 - 3.4
28/10:30pm 24.5 29.7 23.6 95 0.6 ENE 2 6 1 3 1013.3 - 3.2
28/10:00pm 24.5 29.0 23.6 95 0.6 ENE 6 9 3 5 1013.4 - 3.0
28/09:30pm 24.7 29.1 23.8 95 0.6 ESE 7 11 4 6 1013.3 - 3.0
28/09:00pm 24.6 28.5 23.6 94 0.7 ESE 9 13 5 7 1013.1 1013.0 3.0
28/08:30pm 24.6 28.5 23.6 94 0.7 ESE 9 13 5 7 1012.7 - 3.0
28/08:00pm 24.8 29.7 23.6 93 0.8 E 4 7 2 4 1012.4 - 3.0
28/07:30pm 24.9 30.3 23.3 91 1.1 CALM 0 0 0 0 1012.5 - 2.8
28/07:00pm 25.0 30.0 23.2 90 1.2 E 2 7 1 4 1012.4 - 2.4
28/06:30pm 25.0 29.0 23.1 89 1.3 ESE 7 9 4 5 1012.1 - 2.4
28/06:00pm 25.1 29.5 23.5 91 1.1 ESE 6 7 3 4 1011.8 1011.7 2.4
28/05:30pm 25.1 29.3 23.5 91 1.1 ESE 7 9 4 5 1011.6 - 2.4
28/05:00pm 25.1 30.0 23.7 92 1.0 ESE 4 11 2 6 1011.3 - 2.4
28/04:48pm 25.0 30.5 23.4 91 1.1 CALM 0 0 0 0 1011.3 - 2.4
28/04:30pm 24.8 28.7 23.0 90 1.2 E 7 11 4 6 1011.2 - 2.0
28/04:14pm 25.4 28.5 22.9 86 1.7 E 11 17 6 9 1011.2 - 0.4
28/04:00pm 25.9 27.3 22.6 82 2.2 SE 19 24 10 13 1011.0 - 0.0
28/03:30pm 27.0 27.5 22.0 74 3.4 ESE 22 33 12 18 1010.9 - 0.0
28/03:00pm 28.6 29.1 21.9 67 4.5 SE 22 30 12 16 1010.6 1010.5 0.0
28/02:30pm 28.8 29.0 22.1 67 4.5 ESE 24 35 13 19 1010.7 - 0.0
28/02:00pm 28.7 29.0 22.2 68 4.4 SE 24 33 13 18 1011.0 - 0.0
28/01:30pm 30.0 31.3 22.4 63 5.2 ESE 19 28 10 15 1011.4 - 0.0
28/01:00pm 30.5 32.6 23.7 67 4.7 ESE 19 26 10 14 1011.5 - 0.0
28/12:30pm 28.8 30.5 22.3 68 4.4 E 17 24 9 13 1011.9 - 0.0
28/12:00pm 27.8 29.5 22.3 72 3.7 E 17 24 9 13 1012.3 1012.2 0.0
28/11:30am 29.2 31.9 22.9 69 4.3 ESE 13 20 7 11 1012.7 - 0.0
28/11:00am 27.6 30.7 22.8 75 3.3 NE 11 17 6 9 1013.0 - 0.0
28/10:30am 28.1 29.4 21.6 68 4.3 E 17 28 9 15 1013.3 - 0.0
28/10:00am 27.6 29.5 22.1 72 3.7 E 15 24 8 13 1013.5 - 0.0
28/09:30am 27.5 29.8 22.7 75 3.3 ESE 15 20 8 11 1013.5 - 0.0
28/09:00am 27.1 29.2 22.5 76 3.1 ESE 15 26 8 14 1013.5 1013.4 3.2
28/08:30am 27.0 29.7 23.5 81 2.4 SE 15 20 8 11 1013.3 - 3.2
28/08:00am 26.8 29.0 23.3 81 2.4 SSE 17 20 9 11 1013.2 - 3.2
28/07:30am 25.8 28.2 22.9 84 2.0 SE 15 17 8 9 1012.9 - 3.2
28/07:00am 24.7 27.9 22.4 87 1.5 SE 9 13 5 7 1012.6 - 3.2
28/06:30am 23.7 27.4 22.3 92 0.9 ESE 6 7 3 4 1012.3 - 3.2
28/06:00am 23.5 26.7 22.3 93 0.8 ESE 9 13 5 7 1012.0 1011.9 3.0
28/05:30am 23.4 26.0 22.0 92 0.9 ESE 11 15 6 8 1011.6 - 3.0
28/05:00am 23.3 25.9 21.9 92 0.9 ESE 11 17 6 9 1011.4 - 3.0
28/04:30am 22.9 24.1 21.4 91 1.0 ESE 17 22 9 12 1011.5 - 3.0
28/04:00am 23.4 25.5 22.4 94 0.7 ESE 15 22 8 12 1011.3 - 3.0
28/03:46am 23.6 25.8 22.6 94 0.7 ESE 15 24 8 13 1011.4 - 3.0
28/03:30am 23.5 25.4 22.7 95 0.5 ESE 17 22 9 12 1011.4 - 2.6
28/03:03am 23.3 27.0 22.3 94 0.7 NE 6 11 3 6 1011.5 - 1.6
28/03:00am 23.3 27.0 22.3 94 0.7 NE 6 7 3 4 1011.6 1011.5 1.6
28/02:30am 23.1 26.1 21.9 93 0.8 SE 9 13 5 7 1011.4 - 1.6
28/02:00am 23.4 25.9 22.4 94 0.7 SE 13 17 7 9 1011.6 - 1.6
28/01:30am 22.9 24.7 21.9 94 0.7 SE 15 20 8 11 1012.2 - 1.6
28/01:13am 22.8 24.7 22.0 95 0.5 SSE 15 20 8 11 1012.5 - 1.6
28/01:00am 22.7 24.9 21.9 95 0.5 SSE 13 17 7 9 1012.9 - 1.4
28/12:42am 22.8 24.7 21.4 92 0.9 SE 13 19 7 10 1013.2 - 1.2
28/12:30am 22.8 24.7 21.4 92 0.9 SE 13 19 7 10 1013.3 - 1.2
28/12:00am 22.8 23.3 20.9 89 1.2 SE 19 24 10 13 1013.3 1013.2 1.2
 
Date/Time
EST
Temp
°C
App
Temp
°C
Dew
Point
°C
Rel
Hum
%
Delta-T
°C
Wind Press
QNH
hPa
Press
MSL
hPa
Rain since
9am
mm
Dir  Spd
km/h
Gust
km/h
Spd
kts
Gust
kts
27/11:30pm 23.3 24.2 21.9 92 0.9 SSE 20 28 11 15 1013.5 - 1.2
27/11:00pm 23.6 25.0 22.8 95 0.5 SSE 20 28 11 15 1013.6 - 1.2
27/10:30pm 23.6 25.9 22.8 95 0.5 SSE 15 20 8 11 1013.7 - 1.2
27/10:00pm 23.8 26.3 22.4 92 0.9 SE 13 19 7 10 1014.1 - 1.0
27/09:30pm 23.7 25.7 22.3 92 0.9 SSE 15 20 8 11 1014.2 - 1.0
27/09:00pm 23.7 25.7 22.3 92 0.9 SSE 15 20 8 11 1014.1 1014.0 1.0
27/08:30pm 23.9 26.0 22.5 92 0.9 SE 15 22 8 12 1014.0 - 0.8
27/08:00pm 24.0 25.1 21.9 88 1.4 SE 19 24 10 13 1013.7 - 0.6
27/07:30pm 24.9 26.2 21.6 82 2.2 SE 17 20 9 11 1013.3 - 0.2
27/07:00pm 25.0 26.6 21.5 81 2.3 SE 15 20 8 11 1013.1 - 0.2
27/06:30pm 25.2 26.3 21.3 79 2.6 SE 17 22 9 12 1012.9 - 0.2
27/06:00pm 25.6 26.7 21.3 77 2.8 SE 17 24 9 13 1012.4 1012.3 0.2
27/05:30pm 26.0 26.2 21.4 76 3.1 SE 22 33 12 18 1012.1 - 0.2
27/05:00pm 26.5 26.1 21.0 72 3.6 SE 24 35 13 19 1011.8 - 0.2
27/04:30pm 27.3 26.9 20.9 68 4.2 ESE 24 39 13 21 1011.6 - 0.2
27/04:00pm 28.5 27.6 21.5 66 4.7 SE 28 39 15 21 1011.4 - 0.2
27/03:30pm 28.7 27.7 21.2 64 5.0 ESE 28 39 15 21 1011.5 - 0.2
27/03:00pm 29.3 29.2 21.5 63 5.2 SE 24 35 13 19 1011.5 1011.4 0.2

Other Formats:

Comma delimited format used in spreadsheet applications
http://www.bom.gov.au/fwo/IDQ60801/IDQ60801.94567.axf

JavaScript Object Notation format (JSON) in row-major order
http://www.bom.gov.au/fwo/IDQ60801/IDQ60801.94567.json